Terminal Aerodrome Forecast
Issued by NWS

Home | Current Version | Previous Version | Text Only | Print | Product List | Glossary On
Versions: 1 2 3 4 5 6 7 8 9 10 11 12 13 14 15 16 17 18 19 20 21 22 23 24
495
FTUS41 KPBZ 032320
TAFLBE
TAF
KLBE 032320Z 0400/0424 29005KT P6SM VCSH BKN050
     FM041400 VRB04KT P6SM VCSH BKN060=

USA.gov is the U.S. government's official web portal to all federal, state and local government web resources and services.